Time;durP1;ratioP1;P1;durP2;ratioP2;P2;SDS_P1;SDS_P2;PMS_P1;PMS_P2;Temp;Humidity;BMP_temperature;BMP_pressure;BME280_temperature;BME280_humidity;BME280_pressure;Samples;Min_cycle;Max_cycle;Signal;HPM_P1;HPM_P2
2021/09/13 00:01:01;;;;;;;20.43;14.03;;;17.00;99.90;;;;;;4427423;32;20187;-67
2021/09/13 00:03:29;;;;;;;24.50;15.67;;;17.00;99.90;;;;;;4427083;32;20139;-68
2021/09/13 00:05:56;;;;;;;22.70;14.67;;;17.00;99.90;;;;;;4427324;32;20366;-68
2021/09/13 00:08:23;;;;;;;20.83;14.87;;;17.00;99.90;;;;;;4426701;32;20143;-68
2021/09/13 00:10:49;;;;;;;21.53;15.43;;;16.90;99.90;;;;;;4425591;32;20172;-68
2021/09/13 00:13:17;;;;;;;24.63;15.90;;;16.90;99.90;;;;;;4427151;32;20127;-68
2021/09/13 00:15:43;;;;;;;20.77;15.13;;;16.80;99.90;;;;;;4427210;32;20165;-68
2021/09/13 00:18:10;;;;;;;22.50;14.87;;;16.80;99.90;;;;;;4425573;32;20163;-68
2021/09/13 00:20:37;;;;;;;20.87;15.17;;;16.80;99.90;;;;;;4425587;32;20176;-67
2021/09/13 00:23:04;;;;;;;22.77;14.97;;;16.80;99.90;;;;;;4426956;32;20132;-67
2021/09/13 00:25:31;;;;;;;21.77;15.33;;;16.80;99.90;;;;;;4425635;32;20470;-68
2021/09/13 00:27:58;;;;;;;21.30;14.90;;;16.80;99.90;;;;;;4425226;32;20554;-68
2021/09/13 00:30:25;;;;;;;21.13;15.27;;;16.70;99.90;;;;;;4425705;32;20131;-68
2021/09/13 00:32:51;;;;;;;25.17;16.23;;;16.70;99.90;;;;;;4426911;32;20184;-67
2021/09/13 00:35:18;;;;;;;21.40;14.70;;;16.70;99.90;;;;;;4425988;32;20131;-66
2021/09/13 00:37:45;;;;;;;19.43;14.23;;;16.70;99.90;;;;;;4426498;32;20221;-67
2021/09/13 00:40:15;;;;;;;25.83;16.37;;;16.70;99.90;;;;;;4426046;32;20146;-68
2021/09/13 00:42:42;;;;;;;21.73;15.30;;;16.70;99.90;;;;;;4425496;32;20361;-67
2021/09/13 00:45:09;;;;;;;21.53;15.30;;;16.60;99.90;;;;;;4426237;32;20123;-67
2021/09/13 00:47:37;;;;;;;21.20;15.60;;;16.60;99.90;;;;;;4425772;32;20131;-67
2021/09/13 00:50:05;;;;;;;22.73;15.50;;;16.60;99.90;;;;;;4425217;32;20206;-67
2021/09/13 00:52:32;;;;;;;22.77;15.70;;;16.60;99.90;;;;;;4425051;32;20519;-68
2021/09/13 00:55:00;;;;;;;25.10;15.87;;;16.50;99.90;;;;;;4424936;32;20131;-67
2021/09/13 00:57:28;;;;;;;24.67;15.90;;;16.50;99.90;;;;;;4426716;32;20195;-67
2021/09/13 00:59:55;;;;;;;25.27;16.73;;;16.50;99.90;;;;;;4426444;32;20701;-66
2021/09/13 01:02:22;;;;;;;24.30;15.83;;;16.40;99.90;;;;;;4426418;32;20135;-68
2021/09/13 01:04:49;;;;;;;25.50;16.60;;;16.40;99.90;;;;;;4426452;32;20154;-69
2021/09/13 01:07:16;;;;;;;24.37;15.70;;;16.40;99.90;;;;;;4426002;32;20128;-67
2021/09/13 01:09:43;;;;;;;22.20;16.07;;;16.40;99.90;;;;;;4424390;32;20233;-67
2021/09/13 01:12:10;;;;;;;23.90;16.23;;;16.40;99.90;;;;;;4425712;32;20135;-67
2021/09/13 01:14:41;;;;;;;25.47;16.93;;;16.40;99.90;;;;;;4423817;32;20131;-68
2021/09/13 01:17:09;;;;;;;22.33;15.63;;;16.40;99.90;;;;;;4425680;32;20139;-67
2021/09/13 01:19:36;;;;;;;23.67;16.43;;;16.40;99.90;;;;;;4426423;32;20135;-67
2021/09/13 01:22:05;;;;;;;24.80;16.73;;;16.40;99.90;;;;;;4425297;32;20151;-68
2021/09/13 01:24:32;;;;;;;24.27;16.30;;;16.40;99.90;;;;;;4424580;32;20142;-67
2021/09/13 01:27:07;;;;;;;26.30;16.90;;;16.30;99.90;;;;;;4426428;32;20398;-67
2021/09/13 01:29:35;;;;;;;25.70;17.33;;;16.30;99.90;;;;;;4424302;32;20127;-67
2021/09/13 01:32:04;;;;;;;25.03;16.73;;;16.30;99.90;;;;;;4425386;32;20124;-68
2021/09/13 01:34:31;;;;;;;23.60;16.40;;;16.30;99.90;;;;;;4424491;32;20700;-68
2021/09/13 01:37:00;;;;;;;26.87;16.57;;;16.30;99.90;;;;;;4424213;32;20525;-68
2021/09/13 01:39:27;;;;;;;24.57;16.20;;;16.30;99.90;;;;;;4426091;32;20427;-68
2021/09/13 01:41:54;;;;;;;23.77;15.97;;;16.30;99.90;;;;;;4426103;32;20155;-68
2021/09/13 01:44:24;;;;;;;24.43;16.13;;;16.30;99.90;;;;;;4426175;32;20185;-68
2021/09/13 01:46:50;;;;;;;22.90;15.93;;;16.30;99.90;;;;;;4424155;32;20132;-68
2021/09/13 01:49:17;;;;;;;22.60;15.40;;;16.30;99.90;;;;;;4424225;32;20127;-68
2021/09/13 01:51:44;;;;;;;23.63;16.43;;;16.30;99.90;;;;;;4425848;32;20220;-68
2021/09/13 01:54:11;;;;;;;26.07;16.60;;;16.30;99.90;;;;;;4426272;32;20212;-67
2021/09/13 01:56:38;;;;;;;26.07;17.70;;;16.30;99.90;;;;;;4423949;32;20619;-66
2021/09/13 01:59:05;;;;;;;25.90;16.50;;;16.20;99.90;;;;;;4424919;32;20541;-67
2021/09/13 02:01:32;;;;;;;23.37;16.37;;;16.20;99.90;;;;;;4424213;32;20132;-67
2021/09/13 02:04:02;;;;;;;25.80;16.97;;;16.20;99.90;;;;;;4425879;32;20135;-67
2021/09/13 02:06:31;;;;;;;27.67;18.17;;;16.20;99.90;;;;;;4423817;32;20135;-67
2021/09/13 02:08:58;;;;;;;25.50;17.73;;;16.10;99.90;;;;;;4425272;32;20527;-67
2021/09/13 02:11:25;;;;;;;28.00;18.00;;;16.10;99.90;;;;;;4423587;32;20193;-66
2021/09/13 02:13:51;;;;;;;27.63;17.93;;;16.10;99.90;;;;;;4424898;32;20167;-66
2021/09/13 02:16:18;;;;;;;25.43;17.57;;;16.10;99.90;;;;;;4423938;32;20185;-67
2021/09/13 02:18:45;;;;;;;27.83;17.17;;;16.10;99.90;;;;;;4424850;32;20127;-67
2021/09/13 02:21:12;;;;;;;28.77;18.07;;;16.00;99.90;;;;;;4424029;32;20181;-67
2021/09/13 02:23:39;;;;;;;28.33;17.63;;;16.10;99.90;;;;;;4424742;32;20147;-67
2021/09/13 02:26:06;;;;;;;27.47;17.57;;;16.10;99.90;;;;;;4423648;32;20127;-67
2021/09/13 02:28:32;;;;;;;27.67;18.20;;;16.00;99.90;;;;;;4425235;32;20161;-67
2021/09/13 02:30:59;;;;;;;27.60;17.90;;;16.00;99.90;;;;;;4425222;32;20425;-67
2021/09/13 02:33:31;;;;;;;28.67;18.27;;;16.00;99.90;;;;;;4423770;32;20530;-68
2021/09/13 02:35:58;;;;;;;28.80;19.33;;;16.00;99.90;;;;;;4423007;32;20413;-68
2021/09/13 02:38:25;;;;;;;27.07;17.40;;;16.00;99.90;;;;;;4423577;32;20366;-67
2021/09/13 02:40:52;;;;;;;29.67;19.23;;;15.90;99.90;;;;;;4425097;32;20419;-66
2021/09/13 02:43:18;;;;;;;26.60;18.23;;;15.90;99.90;;;;;;4423752;32;20123;-68
2021/09/13 02:45:45;;;;;;;26.97;18.37;;;15.90;99.90;;;;;;4424733;32;20414;-67
2021/09/13 02:48:12;;;;;;;28.10;17.93;;;15.90;99.90;;;;;;4424147;32;20127;-67
2021/09/13 02:50:39;;;;;;;31.43;18.60;;;15.90;99.90;;;;;;4425250;32;20139;-67
2021/09/13 02:53:08;;;;;;;30.83;19.83;;;15.90;99.90;;;;;;4425262;32;20120;-67
2021/09/13 02:55:36;;;;;;;28.77;18.83;;;15.80;99.90;;;;;;4423825;32;20226;-67
2021/09/13 02:58:02;;;;;;;30.07;19.17;;;15.80;99.90;;;;;;4423657;32;20413;-67
2021/09/13 03:00:29;;;;;;;28.60;18.93;;;15.80;99.90;;;;;;4424864;32;20150;-68
2021/09/13 03:02:56;;;;;;;29.73;19.70;;;15.80;99.90;;;;;;4423588;32;20430;-68
2021/09/13 03:05:23;;;;;;;31.13;19.47;;;15.80;99.90;;;;;;4424710;32;20150;-67
2021/09/13 03:07:53;;;;;;;32.77;19.60;;;15.80;99.90;;;;;;4422402;32;20218;-68
2021/09/13 03:10:20;;;;;;;28.53;18.70;;;15.80;99.90;;;;;;4424706;32;20141;-66
2021/09/13 03:12:49;;;;;;;33.63;19.77;;;15.80;99.90;;;;;;4424122;32;20135;-67
2021/09/13 03:15:16;;;;;;;30.63;18.93;;;15.80;99.90;;;;;;4425014;32;20126;-67
2021/09/13 03:17:45;;;;;;;32.83;20.50;;;15.80;99.90;;;;;;4424309;32;20134;-66
2021/09/13 03:20:13;;;;;;;30.23;19.63;;;15.70;99.90;;;;;;4424146;32;20434;-67
2021/09/13 03:22:40;;;;;;;30.30;19.27;;;15.70;99.90;;;;;;4424216;32;20425;-67
2021/09/13 03:25:07;;;;;;;30.40;20.17;;;15.70;99.90;;;;;;4424831;32;20192;-67
2021/09/13 03:27:34;;;;;;;32.83;21.50;;;15.70;99.90;;;;;;4423617;32;20442;-67
2021/09/13 03:30:03;;;;;;;31.00;20.80;;;15.60;99.90;;;;;;4424712;32;20348;-68
2021/09/13 03:32:32;;;;;;;36.03;21.47;;;15.60;99.90;;;;;;4424987;32;20119;-67
2021/09/13 03:34:59;;;;;;;35.77;21.23;;;15.60;99.90;;;;;;4424481;32;20399;-68
2021/09/13 03:37:26;;;;;;;34.07;21.40;;;15.50;99.90;;;;;;4423076;32;20192;-68
2021/09/13 03:39:53;;;;;;;34.43;21.30;;;15.50;99.90;;;;;;4422790;32;20197;-68
2021/09/13 03:42:19;;;;;;;34.50;21.60;;;15.50;99.90;;;;;;4422982;32;20131;-67
2021/09/13 03:44:46;;;;;;;30.63;20.37;;;15.50;99.90;;;;;;4423228;32;20230;-68
2021/09/13 03:47:13;;;;;;;36.37;21.70;;;15.50;99.90;;;;;;4423323;32;20122;-67
2021/09/13 03:49:42;;;;;;;31.97;20.50;;;15.50;99.90;;;;;;4423082;32;20173;-68
2021/09/13 03:52:09;;;;;;;33.20;20.93;;;15.50;99.90;;;;;;4424476;32;20188;-68
2021/09/13 03:54:37;;;;;;;30.83;21.07;;;15.40;99.90;;;;;;4425054;32;20185;-68
2021/09/13 03:57:04;;;;;;;30.40;19.67;;;15.40;99.90;;;;;;4426500;32;20138;-67
2021/09/13 03:59:31;;;;;;;33.50;21.13;;;15.40;99.90;;;;;;4425410;32;20231;-68
2021/09/13 04:01:59;;;;;;;34.23;21.57;;;15.50;99.90;;;;;;4425979;32;20198;-68
2021/09/13 04:04:28;;;;;;;31.60;20.97;;;15.50;99.90;;;;;;4427645;32;20461;-68
2021/09/13 04:07:17;;;;;;;34.00;21.40;;;15.50;99.90;;;;;;4425609;32;20123;-67
2021/09/13 04:12:10;;;;;;;33.43;21.27;;;15.50;99.90;;;;;;4425761;32;20436;-68
2021/09/13 04:14:37;;;;;;;32.33;21.03;;;15.50;99.90;;;;;;4425536;32;20407;-67
2021/09/13 04:17:04;;;;;;;29.63;19.63;;;15.50;99.90;;;;;;4426278;32;20151;-68
2021/09/13 04:19:31;;;;;;;31.57;20.17;;;15.50;99.90;;;;;;4425403;32;20166;-67
2021/09/13 04:21:57;;;;;;;32.43;20.03;;;15.60;99.90;;;;;;4425471;32;20130;-68
2021/09/13 04:24:24;;;;;;;30.50;19.67;;;15.50;99.90;;;;;;4425871;32;20159;-68
2021/09/13 04:26:54;;;;;;;31.43;19.73;;;15.60;99.90;;;;;;4425933;32;20138;-67
2021/09/13 04:29:21;;;;;;;30.43;20.63;;;15.60;99.90;;;;;;4427276;32;20140;-67
2021/09/13 04:31:47;;;;;;;34.30;21.13;;;15.60;99.90;;;;;;4424380;32;20486;-67
2021/09/13 04:34:16;;;;;;;31.20;20.50;;;15.50;99.90;;;;;;4425192;32;20128;-67
2021/09/13 04:36:46;;;;;;;28.43;19.23;;;15.50;99.90;;;;;;4424950;32;20164;-68
2021/09/13 04:39:12;;;;;;;31.83;20.43;;;15.60;99.90;;;;;;4427048;32;20151;-68
2021/09/13 04:41:40;;;;;;;34.13;21.00;;;15.60;99.90;;;;;;4425858;32;20134;-68
2021/09/13 04:44:11;;;;;;;31.00;20.00;;;15.60;99.90;;;;;;4426581;32;20442;-67
2021/09/13 04:46:38;;;;;;;31.93;19.83;;;15.60;99.90;;;;;;4427026;32;20127;-67
2021/09/13 04:49:05;;;;;;;32.67;20.47;;;15.70;99.90;;;;;;4426197;32;20150;-68
2021/09/13 04:51:33;;;;;;;31.57;20.40;;;15.70;99.90;;;;;;4426612;32;20398;-67
2021/09/13 04:54:00;;;;;;;32.70;20.37;;;15.70;99.90;;;;;;4425030;32;20138;-67
2021/09/13 04:56:27;;;;;;;31.93;20.20;;;15.70;99.90;;;;;;4426030;32;20130;-68
2021/09/13 04:58:54;;;;;;;29.63;20.17;;;15.70;99.90;;;;;;4424366;32;20410;-67
2021/09/13 05:01:21;;;;;;;31.97;20.53;;;15.70;99.90;;;;;;4426702;32;20429;-68
2021/09/13 05:03:52;;;;;;;30.00;20.17;;;15.70;99.90;;;;;;4426294;32;20131;-68
2021/09/13 05:06:19;;;;;;;30.40;20.43;;;15.80;99.90;;;;;;4424229;32;20171;-66
2021/09/13 05:08:48;;;;;;;32.67;19.40;;;15.80;99.90;;;;;;4426167;32;20158;-67
2021/09/13 05:11:15;;;;;;;35.13;21.07;;;15.80;99.90;;;;;;4424544;32;20151;-68
2021/09/13 05:13:42;;;;;;;32.17;20.63;;;15.80;99.90;;;;;;4426362;32;20212;-67
2021/09/13 05:16:09;;;;;;;29.80;20.07;;;15.80;99.90;;;;;;4423515;32;20177;-68
2021/09/13 05:18:36;;;;;;;29.70;19.43;;;15.80;99.90;;;;;;4424308;32;20144;-68
2021/09/13 05:21:06;;;;;;;31.87;20.90;;;15.80;99.90;;;;;;4424669;32;20143;-67
2021/09/13 05:23:32;;;;;;;32.53;19.97;;;15.80;99.90;;;;;;4424675;32;20158;-68
2021/09/13 05:26:02;;;;;;;31.20;21.17;;;15.80;99.90;;;;;;4425466;32;20138;-67
2021/09/13 05:28:29;;;;;;;34.80;20.77;;;15.80;99.90;;;;;;4424405;32;20180;-68
2021/09/13 05:30:57;;;;;;;30.07;20.30;;;15.90;99.90;;;;;;4425696;32;20383;-67
2021/09/13 05:33:24;;;;;;;31.57;19.63;;;15.90;99.90;;;;;;4424562;32;20123;-67
2021/09/13 05:35:51;;;;;;;31.90;19.77;;;15.90;99.90;;;;;;4426099;32;20127;-68
2021/09/13 05:38:18;;;;;;;32.07;19.63;;;16.00;99.90;;;;;;4424156;32;20565;-68
2021/09/13 05:40:45;;;;;;;28.63;19.17;;;16.00;99.90;;;;;;4424433;32;20562;-68
2021/09/13 05:43:12;;;;;;;32.03;20.03;;;16.00;99.90;;;;;;4426014;32;20204;-67
2021/09/13 05:45:38;;;;;;;33.23;20.03;;;16.00;99.90;;;;;;4423325;32;20139;-67
2021/09/13 05:48:08;;;;;;;31.10;20.53;;;16.00;99.90;;;;;;4424991;32;20150;-67
2021/09/13 05:50:35;;;;;;;31.10;19.77;;;16.00;99.90;;;;;;4423896;32;20127;-68
2021/09/13 05:53:02;;;;;;;30.77;19.70;;;16.10;99.90;;;;;;4425118;32;20215;-67
2021/09/13 05:55:28;;;;;;;30.90;20.77;;;16.10;99.90;;;;;;4425177;32;20153;-66
2021/09/13 05:57:55;;;;;;;31.90;20.40;;;16.10;99.90;;;;;;4424330;32;20157;-68
2021/09/13 06:00:23;;;;;;;31.23;19.63;;;16.20;99.90;;;;;;4423710;32;20170;-68
2021/09/13 06:03:00;;;;;;;34.30;19.60;;;16.30;99.90;;;;;;4423596;32;20127;-68
2021/09/13 06:05:27;;;;;;;32.20;20.70;;;16.40;99.90;;;;;;4425560;32;20128;-67
2021/09/13 06:07:54;;;;;;;33.57;20.93;;;16.40;99.90;;;;;;4424926;32;20181;-67
2021/09/13 06:10:21;;;;;;;29.70;19.17;;;16.40;99.90;;;;;;4423844;32;20161;-67
2021/09/13 06:12:49;;;;;;;30.17;19.47;;;16.50;99.90;;;;;;4423844;32;20143;-67
2021/09/13 06:15:16;;;;;;;32.00;20.17;;;16.50;99.90;;;;;;4423927;32;20188;-67
2021/09/13 06:17:43;;;;;;;30.77;19.63;;;16.50;99.90;;;;;;4423406;32;20154;-67
2021/09/13 06:20:12;;;;;;;29.93;19.23;;;16.50;99.90;;;;;;4424977;32;20148;-67
2021/09/13 06:22:41;;;;;;;34.13;20.17;;;16.60;99.90;;;;;;4424453;32;20199;-67
2021/09/13 06:25:08;;;;;;;31.53;18.43;;;16.60;99.90;;;;;;4423017;32;20542;-67
2021/09/13 06:27:35;;;;;;;31.73;19.47;;;16.70;99.90;;;;;;4423286;32;20203;-69
2021/09/13 06:30:06;;;;;;;31.90;19.93;;;16.80;99.90;;;;;;4422819;32;20181;-69
2021/09/13 06:32:34;;;;;;;30.60;20.27;;;16.80;99.90;;;;;;4425291;32;20189;-68
2021/09/13 06:35:04;;;;;;;33.77;20.97;;;16.80;99.90;;;;;;4423406;32;20427;-68
2021/09/13 06:37:31;;;;;;;32.63;20.47;;;16.80;99.90;;;;;;4423852;32;20124;-67
2021/09/13 06:39:58;;;;;;;31.13;20.50;;;16.80;99.90;;;;;;4424817;32;20127;-69
2021/09/13 06:42:26;;;;;;;35.47;21.57;;;16.90;99.90;;;;;;4423490;32;20207;-68
2021/09/13 06:44:55;;;;;;;33.17;20.43;;;16.90;99.90;;;;;;4425258;32;20127;-68
2021/09/13 06:49:59;;;;;;;31.20;19.40;;;16.90;99.90;;;;;;4423575;32;20177;-68
2021/09/13 06:52:25;;;;;;;31.90;20.50;;;17.00;99.90;;;;;;4425459;32;20135;-68
2021/09/13 06:54:52;;;;;;;35.40;20.77;;;17.00;99.90;;;;;;4422954;32;20211;-68
2021/09/13 06:57:19;;;;;;;32.57;19.63;;;17.00;99.90;;;;;;4424197;32;20136;-68
2021/09/13 06:59:46;;;;;;;33.13;21.40;;;17.10;99.90;;;;;;4423052;32;20220;-68
2021/09/13 07:02:13;;;;;;;34.07;21.17;;;17.20;99.90;;;;;;4423780;32;20179;-68
2021/09/13 07:04:40;;;;;;;32.10;19.73;;;17.10;99.90;;;;;;4425217;32;20218;-69
2021/09/13 07:07:06;;;;;;;32.87;20.37;;;17.20;99.90;;;;;;4425040;32;20383;-70
2021/09/13 07:09:33;;;;;;;30.73;18.53;;;17.30;99.90;;;;;;4422430;32;20843;-69
2021/09/13 07:12:00;;;;;;;30.50;19.07;;;17.50;99.90;;;;;;4424156;32;20208;-68
2021/09/13 07:14:29;;;;;;;33.87;19.03;;;17.60;99.90;;;;;;4424641;32;20160;-69
2021/09/13 07:17:00;;;;;;;31.30;19.80;;;17.70;99.90;;;;;;4424857;32;20123;-68
2021/09/13 07:19:27;;;;;;;30.10;18.87;;;17.80;99.90;;;;;;4423301;32;20135;-69
2021/09/13 07:21:54;;;;;;;31.43;19.33;;;17.90;99.90;;;;;;4424658;32;20177;-69
2021/09/13 07:24:21;;;;;;;28.87;19.27;;;18.00;99.90;;;;;;4423684;32;20202;-69
2021/09/13 07:26:48;;;;;;;30.13;19.23;;;18.10;99.90;;;;;;4422883;32;20137;-69
2021/09/13 07:29:15;;;;;;;31.33;19.70;;;18.20;99.90;;;;;;4424662;32;20174;-68
2021/09/13 07:31:42;;;;;;;34.43;20.20;;;18.20;99.90;;;;;;4427352;32;20162;-69
2021/09/13 07:34:12;;;;;;;30.60;18.73;;;18.40;99.90;;;;;;4426208;32;20127;-69
2021/09/13 07:36:38;;;;;;;29.97;19.63;;;18.50;99.90;;;;;;4425681;32;20396;-69
2021/09/13 07:39:08;;;;;;;32.93;19.17;;;18.60;99.90;;;;;;4425821;32;20504;-69
2021/09/13 07:41:35;;;;;;;30.77;19.53;;;18.70;99.90;;;;;;4426864;32;20180;-68
2021/09/13 07:44:01;;;;;;;29.63;18.73;;;18.70;99.90;;;;;;4426378;32;20131;-69
2021/09/13 07:46:31;;;;;;;28.00;18.23;;;18.80;99.90;;;;;;4426089;32;20202;-69
2021/09/13 07:49:00;;;;;;;33.87;19.10;;;18.80;99.90;;;;;;4426375;32;20188;-68
2021/09/13 07:51:28;;;;;;;30.07;19.77;;;18.60;99.90;;;;;;4427378;32;20147;-68
2021/09/13 07:53:55;;;;;;;30.23;18.97;;;18.60;99.90;;;;;;4425332;32;20176;-68
2021/09/13 07:56:22;;;;;;;28.93;18.47;;;18.60;99.90;;;;;;4427413;32;20411;-68
2021/09/13 07:58:48;;;;;;;32.50;20.67;;;18.60;99.90;;;;;;4426005;32;20169;-69
2021/09/13 08:01:16;;;;;;;31.00;19.27;;;18.60;99.90;;;;;;4425122;32;20208;-68
2021/09/13 08:03:43;;;;;;;30.67;19.77;;;18.70;99.90;;;;;;4427047;32;20154;-69
2021/09/13 08:06:10;;;;;;;29.80;18.70;;;18.80;99.90;;;;;;4425595;32;20131;-69
2021/09/13 08:08:37;;;;;;;33.50;19.47;;;18.90;99.90;;;;;;4427021;32;20425;-69
2021/09/13 08:11:08;;;;;;;29.53;18.37;;;19.00;99.90;;;;;;4425708;32;20127;-69
2021/09/13 08:13:39;;;;;;;30.67;18.93;;;19.00;99.90;;;;;;4426708;32;20355;-69
2021/09/13 08:16:10;;;;;;;32.43;18.87;;;19.10;99.90;;;;;;4427463;32;20174;-69
2021/09/13 08:18:38;;;;;;;29.40;19.43;;;19.20;99.90;;;;;;4426909;32;20123;-69
2021/09/13 08:21:05;;;;;;;30.03;18.77;;;19.10;99.90;;;;;;4427186;32;20140;-69
2021/09/13 08:23:34;;;;;;;31.40;19.27;;;19.30;99.90;;;;;;4426790;32;20398;-68
2021/09/13 08:26:02;;;;;;;29.87;19.30;;;19.60;99.90;;;;;;4425247;32;20132;-68
2021/09/13 08:28:29;;;;;;;29.97;18.87;;;19.80;99.90;;;;;;4426742;32;20218;-68
2021/09/13 08:30:56;;;;;;;25.80;17.23;;;19.90;99.90;;;;;;4424545;32;20147;-68
2021/09/13 08:33:23;;;;;;;24.47;15.43;;;20.20;99.90;;;;;;4426270;32;20179;-68
2021/09/13 08:35:53;;;;;;;22.23;14.87;;;20.20;99.90;;;;;;4425332;32;20172;-68
2021/09/13 08:38:22;;;;;;;21.83;13.97;;;20.40;99.90;;;;;;4424829;32;20155;-68
2021/09/13 08:40:49;;;;;;;23.87;14.13;;;21.10;99.90;;;;;;4424942;32;20180;-68
2021/09/13 08:43:16;;;;;;;20.50;13.40;;;21.50;99.90;;;;;;4425895;32;20143;-68
2021/09/13 08:45:54;;;;;;;20.13;12.77;;;22.00;99.90;;;;;;4425311;32;20212;-68
2021/09/13 08:48:33;;;;;;;19.10;12.47;;;22.20;99.90;;;;;;4424683;32;20386;-69
2021/09/13 08:51:16;;;;;;;18.53;12.20;;;22.50;99.90;;;;;;4425770;32;20400;-68
2021/09/13 08:53:53;;;;;;;17.87;12.07;;;22.60;99.90;;;;;;4426541;32;20514;-69
2021/09/13 08:56:24;;;;;;;16.50;10.97;;;22.40;99.90;;;;;;4424770;32;20127;-69
2021/09/13 08:58:51;;;;;;;13.33;10.07;;;22.90;99.90;;;;;;4424375;32;20198;-69
2021/09/13 09:01:21;;;;;;;13.03;9.60;;;23.20;99.90;;;;;;4425007;32;20161;-70
2021/09/13 09:03:50;;;;;;;13.10;9.70;;;23.70;99.90;;;;;;4424683;32;20154;-69
2021/09/13 09:06:38;;;;;;;14.70;9.83;;;23.80;99.90;;;;;;4425860;32;20185;-69
2021/09/13 09:09:08;;;;;;;13.02;9.48;;;24.00;99.90;;;;;;4424363;32;20178;-68
2021/09/13 09:11:54;;;;;;;11.70;8.80;;;24.50;99.90;;;;;;4426101;32;20139;-69
2021/09/13 09:14:44;;;;;;;12.48;8.43;;;25.10;99.90;;;;;;4425691;32;20188;-69
2021/09/13 09:17:27;;;;;;;11.52;7.20;;;25.60;99.90;;;;;;4425211;32;20166;-70
2021/09/13 09:20:01;;;;;;;10.25;7.78;;;26.10;99.90;;;;;;4425005;32;20183;-69
2021/09/13 09:22:30;;;;;;;10.80;8.00;;;26.50;99.90;;;;;;4426516;32;20214;-69
2021/09/13 09:25:03;;;;;;;12.23;8.18;;;26.60;99.90;;;;;;4424983;32;20227;-69
2021/09/13 09:27:30;;;;;;;9.77;7.40;;;26.70;99.90;;;;;;4424795;32;20165;-68
2021/09/13 09:30:11;;;;;;;8.88;7.00;;;26.30;99.90;;;;;;4425822;32;20139;-69
2021/09/13 09:32:41;;;;;;;8.15;6.45;;;26.30;99.90;;;;;;4426234;32;20135;-69
2021/09/13 09:35:16;;;;;;;10.18;7.03;;;26.70;99.90;;;;;;4425285;32;20409;-67
2021/09/13 09:37:45;;;;;;;9.00;6.40;;;26.70;99.90;;;;;;4425957;32;20246;-67
2021/09/13 09:40:26;;;;;;;9.57;6.28;;;26.90;99.90;;;;;;4423915;32;20159;-67
2021/09/13 09:42:54;;;;;;;9.25;6.65;;;27.20;99.90;;;;;;4424563;32;20213;-68
2021/09/13 09:45:21;;;;;;;9.40;6.95;;;27.70;99.90;;;;;;4424856;32;20285;-67
2021/09/13 09:48:05;;;;;;;11.02;8.07;;;27.90;99.90;;;;;;4424288;32;20214;-67
2021/09/13 09:50:33;;;;;;;10.45;7.65;;;27.20;99.90;;;;;;4424249;32;20127;-67
2021/09/13 09:53:18;;;;;;;9.38;7.90;;;27.20;99.90;;;;;;4425299;32;20134;-67
2021/09/13 09:55:51;;;;;;;10.50;7.57;;;27.30;99.90;;;;;;4424974;32;20131;-68
2021/09/13 09:58:18;;;;;;;9.50;7.22;;;27.60;99.90;;;;;;4423942;32;20454;-68
2021/09/13 10:00:46;;;;;;;10.55;7.62;;;28.00;99.90;;;;;;4423814;32;20533;-69
2021/09/13 10:03:34;;;;;;;11.12;8.48;;;28.70;99.90;;;;;;4423861;32;20174;-68
2021/09/13 10:06:06;;;;;;;12.10;7.90;;;29.10;97.50;;;;;;4423969;32;20124;-67
2021/09/13 10:08:34;;;;;;;11.43;8.32;;;29.20;97.40;;;;;;4424829;32;20555;-68
2021/09/13 10:11:06;;;;;;;11.23;7.35;;;28.60;96.40;;;;;;4423744;32;20485;-68
2021/09/13 10:13:33;;;;;;;9.15;7.50;;;28.10;97.30;;;;;;4425013;32;20165;-68
2021/09/13 10:16:01;;;;;;;12.55;9.88;;;27.50;98.00;;;;;;4423842;32;20154;-68
2021/09/13 10:18:29;;;;;;;11.43;7.65;;;27.10;98.40;;;;;;4425516;32;20216;-68
2021/09/13 10:20:56;;;;;;;8.45;6.70;;;27.10;98.50;;;;;;4424774;32;20127;-68
2021/09/13 10:23:23;;;;;;;9.20;7.35;;;26.70;99.30;;;;;;4423779;32;20184;-68
2021/09/13 10:25:49;;;;;;;10.98;7.82;;;26.40;99.60;;;;;;4425505;32;20172;-67
2021/09/13 10:28:16;;;;;;;11.88;8.20;;;26.00;99.90;;;;;;4423907;32;20165;-68
2021/09/13 10:30:53;;;;;;;10.15;7.80;;;25.90;99.90;;;;;;4425570;32;20207;-70
2021/09/13 10:33:59;;;;;;;11.30;7.65;;;25.40;99.90;;;;;;4423546;32;20239;-68
2021/09/13 10:37:01;;;;;;;10.95;8.38;;;25.00;99.90;;;;;;4423885;32;20433;-68
2021/09/13 10:39:53;;;;;;;10.52;8.18;;;24.60;99.90;;;;;;4423681;32;20163;-68
2021/09/13 10:42:26;;;;;;;10.25;8.23;;;24.60;99.90;;;;;;4425100;32;20135;-68
2021/09/13 10:45:13;;;;;;;10.00;7.75;;;24.80;99.90;;;;;;4424338;32;20159;-69
2021/09/13 10:47:43;;;;;;;10.48;8.00;;;25.60;99.90;;;;;;4423497;32;20126;-69
2021/09/13 10:50:32;;;;;;;10.68;8.23;;;26.20;99.90;;;;;;4423273;32;20418;-68
2021/09/13 10:53:01;;;;;;;10.15;7.68;;;25.70;99.90;;;;;;4423410;32;20135;-69
2021/09/13 10:55:59;;;;;;;11.15;7.97;;;25.40;99.90;;;;;;4424095;32;20139;-69
2021/09/13 10:58:53;;;;;;;10.15;7.80;;;25.30;99.90;;;;;;4424431;32;20135;-69
2021/09/13 11:01:24;;;;;;;11.77;7.77;;;25.30;99.90;;;;;;4425146;32;20342;-69
2021/09/13 11:04:04;;;;;;;9.93;8.30;;;25.10;99.90;;;;;;4425259;32;20189;-68
2021/09/13 11:06:36;;;;;;;10.38;7.70;;;25.00;99.90;;;;;;4425254;32;20191;-68
2021/09/13 11:09:06;;;;;;;11.15;8.32;;;25.00;99.90;;;;;;4425029;32;20208;-67
2021/09/13 11:11:41;;;;;;;11.57;9.13;;;24.90;99.90;;;;;;4424941;32;20201;-68
2021/09/13 11:14:21;;;;;;;10.07;7.95;;;24.40;99.90;;;;;;4424061;32;20177;-69
2021/09/13 11:16:57;;;;;;;13.05;8.95;;;24.20;99.90;;;;;;4423961;32;20499;-68
2021/09/13 11:19:26;;;;;;;11.50;8.80;;;24.00;99.90;;;;;;4423619;32;20429;-68
2021/09/13 11:22:12;;;;;;;11.50;8.23;;;23.50;99.90;;;;;;4422748;32;20205;-67
2021/09/13 11:24:39;;;;;;;10.07;8.13;;;23.40;99.90;;;;;;4423766;32;20146;-68
2021/09/13 11:27:09;;;;;;;12.73;8.57;;;22.90;99.90;;;;;;4424506;32;20131;-69
2021/09/13 11:29:41;;;;;;;11.53;8.07;;;22.70;99.90;;;;;;4423867;32;20188;-69
2021/09/13 11:32:15;;;;;;;12.00;7.60;;;22.60;99.90;;;;;;4423016;32;20192;-68
2021/09/13 11:34:44;;;;;;;11.02;8.15;;;22.60;99.90;;;;;;4424246;32;20208;-69
2021/09/13 11:37:18;;;;;;;11.87;8.27;;;22.60;99.90;;;;;;4425164;32;20126;-68
2021/09/13 11:40:05;;;;;;;12.23;8.73;;;22.70;99.90;;;;;;4422902;32;20205;-68
2021/09/13 11:42:35;;;;;;;13.00;8.87;;;22.70;99.90;;;;;;4423266;32;20226;-68
2021/09/13 11:45:07;;;;;;;12.40;8.70;;;23.70;99.90;;;;;;4423130;32;20184;-69
2021/09/13 11:47:51;;;;;;;11.73;8.03;;;25.20;99.90;;;;;;4424422;32;20346;-69
2021/09/13 11:50:18;;;;;;;10.18;7.65;;;27.50;99.90;;;;;;4423136;32;20526;-70
2021/09/13 11:52:45;;;;;;;10.88;7.80;;;28.80;99.90;;;;;;4423205;32;20159;-69
2021/09/13 11:55:17;;;;;;;13.40;7.85;;;29.80;97.40;;;;;;4422946;32;20572;-69
2021/09/13 11:57:58;;;;;;;8.57;6.60;;;29.50;95.60;;;;;;4423245;32;20338;-68
2021/09/13 12:00:36;;;;;;;7.68;6.37;;;29.70;94.60;;;;;;4423673;32;20139;-70
2021/09/13 12:03:06;;;;;;;7.57;5.47;;;31.00;92.50;;;;;;4424157;32;20131;-69
2021/09/13 12:05:35;;;;;;;7.50;5.40;;;31.60;84.40;;;;;;4423677;32;20190;-69
2021/09/13 12:08:08;;;;;;;6.35;5.07;;;32.30;77.20;;;;;;4422451;32;20177;-69
2021/09/13 12:10:39;;;;;;;6.00;4.50;;;31.70;78.10;;;;;;4423055;32;20139;-69
2021/09/13 12:13:11;;;;;;;4.68;4.03;;;32.30;76.10;;;;;;4423001;32;20174;-69
2021/09/13 12:15:45;;;;;;;5.15;4.12;;;32.40;71.70;;;;;;4421668;32;20171;-69
2021/09/13 12:18:12;;;;;;;4.47;3.97;;;33.70;66.90;;;;;;4424515;32;20168;-69
2021/09/13 12:20:44;;;;;;;5.95;4.10;;;34.10;66.00;;;;;;4426015;32;20173;-68
2021/09/13 12:23:13;;;;;;;5.97;4.05;;;35.00;65.00;;;;;;4425907;32;20219;-69
2021/09/13 12:25:53;;;;;;;6.95;3.80;;;34.90;61.70;;;;;;4427050;32;20154;-69
2021/09/13 12:28:21;;;;;;;4.80;3.92;;;34.60;60.60;;;;;;4425900;32;20393;-68
2021/09/13 12:30:54;;;;;;;5.12;3.95;;;34.60;58.70;;;;;;4426996;32;20183;-69
2021/09/13 12:33:34;;;;;;;5.72;4.70;;;34.20;60.40;;;;;;4426278;32;20139;-67
2021/09/13 12:36:15;;;;;;;4.55;4.12;;;32.90;62.20;;;;;;4425751;32;20146;-68
2021/09/13 12:38:44;;;;;;;5.07;4.20;;;31.90;65.60;;;;;;4425523;32;20155;-68
2021/09/13 12:41:11;;;;;;;5.78;4.30;;;31.10;67.40;;;;;;4425634;32;20405;-68
2021/09/13 12:43:47;;;;;;;5.30;4.37;;;30.50;70.80;;;;;;4425124;32;20245;-68
2021/09/13 12:46:17;;;;;;;7.90;4.80;;;29.00;71.80;;;;;;4424541;32;20178;-69
2021/09/13 12:48:50;;;;;;;6.05;4.85;;;28.20;74.60;;;;;;4425797;32;20448;-68